Time;durP1;ratioP1;P1;durP2;ratioP2;P2;SDS_P1;SDS_P2;PMS_P1;PMS_P2;Temp;Humidity;BMP_temperature;BMP_pressure;BME280_temperature;BME280_humidity;BME280_pressure;Samples;Min_cycle;Max_cycle;Signal;HPM_P1;HPM_P2
2021/12/05 00:21:39;;;;;;;4.70;1.20;;;4.20;99.90;;;;;;1950873;72;21055;-84
2021/12/05 00:24:04;;;;;;;7.62;1.40;;;4.20;99.90;;;;;;1938584;73;21499;-85
2021/12/05 00:26:26;;;;;;;7.80;2.00;;;4.20;99.90;;;;;;1945202;72;21083;-84
2021/12/05 00:31:48;;;;;;;2.87;1.05;;;4.20;99.90;;;;;;1952262;72;21095;-84
2021/12/05 00:47:55;;;;;;;3.58;1.07;;;4.20;99.90;;;;;;1955556;72;21150;-84
2021/12/05 00:52:25;;;;;;;5.17;1.20;;;4.40;99.90;;;;;;1951515;71;20273;-82
2021/12/05 00:57:39;;;;;;;4.03;1.30;;;4.40;99.90;;;;;;1943542;72;21118;-83
2021/12/05 01:00:05;;;;;;;5.40;1.62;;;4.40;99.90;;;;;;1945072;71;21152;-82
2021/12/05 01:02:44;;;;;;;5.35;1.42;;;4.40;99.90;;;;;;1937702;73;21083;-80
2021/12/05 01:05:30;;;;;;;1.92;1.17;;;4.40;99.90;;;;;;1943413;72;21036;-82
2021/12/05 01:08:13;;;;;;;4.53;1.80;;;4.30;99.90;;;;;;1953907;72;21247;-82
2021/12/05 01:15:12;;;;;;;3.20;1.40;;;4.30;99.90;;;;;;1939608;73;21103;-82
2021/12/05 01:17:54;;;;;;;4.80;1.40;;;4.40;99.90;;;;;;1941151;73;21428;-80
2021/12/05 01:20:09;;;;;;;;;;;4.40;99.90;;;;;;1945061;72;21099;-81
2021/12/05 01:22:41;;;;;;;3.65;1.15;;;4.30;99.90;;;;;;1949774;72;20394;-83
2021/12/05 01:25:33;;;;;;;3.40;1.10;;;4.30;99.90;;;;;;1955952;72;21168;-81
2021/12/05 01:28:01;;;;;;;2.70;1.30;;;4.30;99.90;;;;;;1945454;72;21157;-81
2021/12/05 01:38:10;;;;;;;1.77;1.10;;;4.20;99.90;;;;;;1948479;72;20136;-81
2021/12/05 01:56:43;;;;;;;0.72;0.70;;;4.30;99.90;;;;;;1940972;73;21291;-80
2021/12/05 01:58:57;;;;;;;;;;;4.30;99.90;;;;;;1943375;72;21146;-83
2021/12/05 02:43:25;;;;;;;1.15;0.55;;;4.00;99.90;;;;;;1938572;72;21172;-80
2021/12/05 02:45:46;;;;;;;8.98;1.22;;;4.10;99.90;;;;;;1946116;72;21357;-82
2021/12/05 02:48:11;;;;;;;3.22;0.90;;;4.10;99.90;;;;;;1942856;73;21211;-82
2021/12/05 02:50:39;;;;;;;3.98;0.98;;;4.10;99.90;;;;;;1938912;73;21148;-79
2021/12/05 02:53:34;;;;;;;2.67;1.02;;;4.10;99.90;;;;;;1948104;72;21156;-82
2021/12/05 02:55:39;;;;;;;3.47;1.10;;;4.10;99.90;;;;;;1945293;72;21100;-82
2021/12/05 02:58:03;;;;;;;4.65;1.30;;;4.20;99.90;;;;;;1952083;70;21134;-80
2021/12/05 03:00:42;;;;;;;3.12;0.85;;;4.30;99.90;;;;;;1938787;73;21243;-82
2021/12/05 03:03:02;;;;;;;3.65;1.10;;;4.30;99.90;;;;;;1943321;72;21157;-81
2021/12/05 03:05:30;;;;;;;2.17;0.82;;;4.30;99.90;;;;;;1938815;73;21188;-82
2021/12/05 03:08:00;;;;;;;5.65;0.93;;;4.30;99.90;;;;;;1955136;72;21063;-81
2021/12/05 03:10:24;;;;;;;3.85;1.32;;;4.30;99.90;;;;;;1946120;72;21064;-81
2021/12/05 03:12:50;;;;;;;6.65;1.00;;;4.40;99.90;;;;;;1941693;73;21212;-81
2021/12/05 03:15:16;;;;;;;2.65;1.07;;;4.40;99.90;;;;;;1919252;72;21051;-80
2021/12/05 03:17:42;;;;;;;4.30;0.93;;;4.40;99.90;;;;;;1930013;72;21109;-82
2021/12/05 03:20:08;;;;;;;7.00;1.12;;;4.40;99.90;;;;;;1952091;72;21067;-82
2021/12/05 03:22:34;;;;;;;3.33;1.20;;;4.40;99.90;;;;;;1957724;72;21455;-81
2021/12/05 03:25:00;;;;;;;4.90;1.05;;;4.40;99.90;;;;;;1945662;72;21494;-80
2021/12/05 03:27:27;;;;;;;3.60;1.00;;;4.50;99.90;;;;;;1935657;72;21495;-81
2021/12/05 03:29:53;;;;;;;3.77;1.22;;;4.40;99.90;;;;;;1947887;72;21111;-81
2021/12/05 03:32:19;;;;;;;7.72;1.20;;;4.40;99.90;;;;;;1946653;72;21071;-80
2021/12/05 03:34:45;;;;;;;3.42;0.90;;;4.40;99.90;;;;;;1945079;73;21027;-81
2021/12/05 03:37:12;;;;;;;3.08;0.90;;;4.30;99.90;;;;;;1944626;72;21495;-80
2021/12/05 03:39:38;;;;;;;21.50;0.90;;;4.40;99.90;;;;;;1957573;72;21109;-80
2021/12/05 03:42:06;;;;;;;1.67;1.07;;;4.40;99.90;;;;;;1958124;72;21136;-81
2021/12/05 03:44:32;;;;;;;2.72;1.07;;;4.40;99.90;;;;;;1941268;72;21094;-81
2021/12/05 03:46:58;;;;;;;5.92;1.20;;;4.40;99.90;;;;;;1940066;73;21191;-80
2021/12/05 03:49:24;;;;;;;8.65;1.30;;;4.40;99.90;;;;;;1949389;72;21062;-80
2021/12/05 03:51:52;;;;;;;1.40;0.70;;;4.40;99.90;;;;;;1953722;70;21140;-80
2021/12/05 03:54:18;;;;;;;4.37;1.00;;;4.30;99.90;;;;;;1946089;73;21131;-82
2021/12/05 03:56:44;;;;;;;3.45;1.02;;;4.20;99.90;;;;;;1946193;72;21039;-80
2021/12/05 03:59:10;;;;;;;4.55;0.80;;;4.20;99.90;;;;;;1955283;72;21148;-81
2021/12/05 04:01:36;;;;;;;8.30;1.22;;;4.20;99.90;;;;;;1957283;72;21108;-80
2021/12/05 04:04:04;;;;;;;3.37;1.05;;;4.00;99.90;;;;;;1956766;72;21171;-83
2021/12/05 04:06:30;;;;;;;2.75;1.35;;;4.10;99.90;;;;;;1946652;70;21099;-82
2021/12/05 04:08:56;;;;;;;2.10;0.70;;;4.00;99.90;;;;;;1947268;72;21054;-80
2021/12/05 04:11:25;;;;;;;3.55;1.02;;;4.00;99.90;;;;;;1936160;72;21033;-81
2021/12/05 04:13:50;;;;;;;2.77;1.07;;;4.10;99.90;;;;;;1951796;72;21499;-80
2021/12/05 04:16:18;;;;;;;10.50;1.07;;;4.00;99.90;;;;;;1942618;71;21489;-82
2021/12/05 04:18:48;;;;;;;3.67;1.12;;;4.00;99.90;;;;;;1951646;72;21169;-82
2021/12/05 04:21:13;;;;;;;1.62;0.70;;;3.90;99.90;;;;;;1955517;72;21633;-81
2021/12/05 04:23:40;;;;;;;2.50;0.82;;;4.00;99.90;;;;;;1957832;72;21127;-81
2021/12/05 04:26:06;;;;;;;3.42;0.85;;;4.00;99.90;;;;;;1957511;72;21075;-80
2021/12/05 04:28:32;;;;;;;3.60;1.25;;;4.10;99.90;;;;;;1958828;72;21136;-81
2021/12/05 04:30:58;;;;;;;3.25;1.12;;;4.10;99.90;;;;;;1945519;72;21199;-82
2021/12/05 04:33:24;;;;;;;6.35;1.07;;;4.10;99.90;;;;;;1957108;72;21063;-82
2021/12/05 04:35:50;;;;;;;1.95;0.95;;;4.10;99.90;;;;;;1951724;72;21132;-82
2021/12/05 04:38:16;;;;;;;3.33;0.95;;;4.00;99.90;;;;;;1945566;72;21054;-81
2021/12/05 04:40:44;;;;;;;3.75;0.75;;;4.00;99.90;;;;;;1948984;72;21036;-82
2021/12/05 04:43:10;;;;;;;2.55;0.68;;;4.10;99.90;;;;;;1945162;72;21083;-81
2021/12/05 04:45:36;;;;;;;7.33;1.10;;;4.10;99.90;;;;;;1940848;73;21050;-81
2021/12/05 04:48:02;;;;;;;3.33;0.93;;;4.10;99.90;;;;;;1953893;72;21099;-80
2021/12/05 04:50:29;;;;;;;2.12;0.85;;;4.20;99.90;;;;;;1962218;72;21067;-80
2021/12/05 04:52:55;;;;;;;4.35;0.95;;;4.30;99.90;;;;;;1944299;72;21139;-81
2021/12/05 04:55:21;;;;;;;2.37;0.80;;;4.30;99.90;;;;;;1957080;72;21059;-81
2021/12/05 04:57:48;;;;;;;2.72;0.88;;;4.30;99.90;;;;;;1957049;72;21589;-81
2021/12/05 05:00:14;;;;;;;3.58;1.05;;;4.40;99.90;;;;;;1944049;72;21143;-82
2021/12/05 05:02:40;;;;;;;4.72;1.37;;;4.40;99.90;;;;;;1948674;72;21124;-80
2021/12/05 05:05:07;;;;;;;3.27;0.70;;;4.40;99.90;;;;;;1957082;72;21063;-81
2021/12/05 05:07:33;;;;;;;6.37;1.35;;;4.50;99.90;;;;;;1948500;72;21132;-82
2021/12/05 05:09:59;;;;;;;6.42;0.93;;;4.40;99.90;;;;;;1944366;72;21063;-82
2021/12/05 05:12:25;;;;;;;5.22;1.00;;;4.40;99.90;;;;;;1943466;73;22554;-82
2021/12/05 05:14:53;;;;;;;4.17;0.75;;;4.50;99.90;;;;;;1957805;72;21067;-82
2021/12/05 05:17:19;;;;;;;6.47;1.27;;;4.50;99.90;;;;;;1956998;72;21553;-80
2021/12/05 05:19:50;;;;;;;3.85;1.10;;;4.50;99.90;;;;;;1955943;72;21062;-81
2021/12/05 05:22:33;;;;;;;4.67;0.98;;;4.50;99.90;;;;;;1943851;72;21114;-82
2021/12/05 05:41:24;;;;;;;5.50;1.25;;;4.00;99.90;;;;;;1948680;72;21132;-81
2021/12/05 05:46:12;;;;;;;3.77;0.80;;;3.80;99.90;;;;;;1962007;72;21067;-81
2021/12/05 05:48:48;;;;;;;7.65;1.10;;;3.60;99.90;;;;;;1935846;73;21180;-82
2021/12/05 05:51:08;;;;;;;3.83;1.07;;;3.40;99.90;;;;;;1947600;72;21142;-80
2021/12/05 05:53:34;;;;;;;2.27;0.85;;;3.30;99.90;;;;;;1934713;73;21124;-82
2021/12/05 05:56:03;;;;;;;3.70;1.00;;;3.20;99.90;;;;;;1945139;72;21062;-82
2021/12/05 05:58:52;;;;;;;2.72;0.95;;;3.10;99.90;;;;;;1955980;72;21503;-82
2021/12/05 06:01:43;;;;;;;3.25;1.00;;;3.10;99.90;;;;;;1950612;72;21180;-83
2021/12/05 06:06:14;;;;;;;4.05;1.00;;;3.10;99.90;;;;;;1952265;72;21059;-82
2021/12/05 07:10:02;;;;;;;2.83;1.02;;;2.80;99.90;;;;;;1928407;73;21193;-83
2021/12/05 07:15:31;;;;;;;2.05;0.80;;;2.90;99.90;;;;;;1954074;72;21067;-79
2021/12/05 07:20:49;;;;;;;1.45;0.88;;;2.90;99.90;;;;;;1937846;73;21154;-78
2021/12/05 07:25:47;;;;;;;8.25;2.77;;;2.80;99.90;;;;;;1950212;72;21067;-80
2021/12/05 07:41:53;;;;;;;2.70;1.05;;;2.90;99.90;;;;;;1953066;72;21149;-75
2021/12/05 07:44:16;;;;;;;7.55;1.20;;;2.90;99.90;;;;;;1945233;73;21588;-81
2021/12/05 07:46:45;;;;;;;2.35;1.25;;;2.80;99.90;;;;;;1944148;72;21431;-80
2021/12/05 07:49:12;;;;;;;2.37;1.35;;;2.80;99.90;;;;;;1941231;73;21116;-79
2021/12/05 07:51:46;;;;;;;4.25;1.62;;;2.80;99.90;;;;;;1936279;73;21556;-77
2021/12/05 07:54:27;;;;;;;4.33;1.50;;;2.80;99.90;;;;;;1945588;72;21166;-77
2021/12/05 07:56:47;;;;;;;4.08;1.45;;;2.80;99.90;;;;;;1951510;72;21553;-77
2021/12/05 08:15:27;;;;;;;3.37;1.45;;;2.60;99.90;;;;;;1962035;72;21085;-74
2021/12/05 08:17:55;;;;;;;1.77;0.90;;;2.80;99.90;;;;;;1949134;72;21588;-73
2021/12/05 08:20:21;;;;;;;3.17;1.20;;;2.90;99.90;;;;;;1953862;72;21062;-74
2021/12/05 08:22:47;;;;;;;9.43;1.47;;;3.10;99.90;;;;;;1946679;72;21040;-75
2021/12/05 08:25:14;;;;;;;4.40;1.55;;;3.10;99.90;;;;;;1955269;72;21124;-76
2021/12/05 08:27:48;;;;;;;7.40;2.72;;;3.10;99.90;;;;;;1947371;72;21064;-72
2021/12/05 08:30:11;;;;;;;4.42;1.72;;;3.20;99.90;;;;;;1951362;72;21497;-75
2021/12/05 08:32:52;;;;;;;8.03;3.50;;;3.20;99.90;;;;;;1948071;72;21071;-75
2021/12/05 08:46:12;;;;;;;3.62;1.85;;;3.60;99.90;;;;;;1881279;75;21188;-75
2021/12/05 09:40:29;;;;;;;7.85;2.35;;;6.30;99.90;;;;;;1890640;75;21078;-76
2021/12/05 10:07:16;;;;;;;3.08;1.47;;;6.60;99.90;;;;;;1894302;75;21073;-77
2021/12/05 10:17:41;;;;;;;3.17;1.70;;;8.60;99.90;;;;;;1891920;75;21097;-79
2021/12/05 10:38:27;;;;;;;1.95;0.72;;;8.80;99.90;;;;;;1879421;75;21077;-81
2021/12/05 10:41:00;;;;;;;5.08;1.10;;;8.30;99.90;;;;;;1889164;75;21180;-81
2021/12/05 10:43:21;;;;;;;2.95;0.93;;;8.00;99.90;;;;;;1887085;75;21184;-80
2021/12/05 10:45:47;;;;;;;3.10;1.10;;;8.20;99.90;;;;;;1877509;75;21163;-80
2021/12/05 10:48:13;;;;;;;2.58;1.22;;;8.30;99.90;;;;;;1889198;75;21552;-83
2021/12/05 10:50:40;;;;;;;0.88;0.70;;;8.70;99.90;;;;;;1886822;75;21549;-83
2021/12/05 10:53:06;;;;;;;1.77;0.78;;;9.00;99.90;;;;;;1892425;75;21474;-82
2021/12/05 10:55:32;;;;;;;4.83;1.25;;;9.00;99.90;;;;;;1884462;75;21588;-84
2021/12/05 10:58:01;;;;;;;1.22;0.80;;;9.20;99.90;;;;;;1883300;75;21129;-76
2021/12/05 11:00:26;;;;;;;3.00;1.00;;;9.40;99.90;;;;;;1878129;75;21101;-85
2021/12/05 11:02:52;;;;;;;2.08;0.80;;;9.50;99.90;;;;;;1883151;75;21050;-80
2021/12/05 11:05:18;;;;;;;1.90;0.82;;;9.80;99.90;;;;;;1889969;75;21537;-81
2021/12/05 11:07:44;;;;;;;1.87;0.78;;;9.90;99.90;;;;;;1879445;75;21563;-83
2021/12/05 11:10:10;;;;;;;0.90;0.65;;;10.00;99.90;;;;;;1881570;75;21474;-81
2021/12/05 11:12:38;;;;;;;1.35;0.65;;;10.10;99.90;;;;;;1876329;75;21447;-83
2021/12/05 11:15:04;;;;;;;1.98;0.85;;;10.10;99.90;;;;;;1883933;75;21085;-81
2021/12/05 11:17:30;;;;;;;0.60;0.60;;;10.10;99.90;;;;;;1877832;75;21085;-84
2021/12/05 11:20:01;;;;;;;0.90;0.62;;;10.00;99.90;;;;;;1888401;75;21093;-83
2021/12/05 11:22:27;;;;;;;;;;;9.90;99.90;;;;;;1887012;75;21051;-83
2021/12/05 11:24:53;;;;;;;1.37;0.80;;;9.90;99.90;;;;;;1884223;75;20107;-83
2021/12/05 11:27:19;;;;;;;3.12;1.50;;;10.60;99.90;;;;;;1879579;75;21253;-80
2021/12/05 11:29:45;;;;;;;1.70;1.05;;;11.00;99.90;;;;;;1886049;75;21171;-82
2021/12/05 11:32:11;;;;;;;1.62;0.85;;;10.80;99.90;;;;;;1857666;76;21082;-82
2021/12/05 11:34:38;;;;;;;6.20;3.70;;;10.70;99.90;;;;;;1892069;75;21050;-81
2021/12/05 11:37:04;;;;;;;1.98;0.80;;;9.70;99.90;;;;;;1877452;76;21090;-82
2021/12/05 11:39:30;;;;;;;2.65;0.90;;;9.20;99.90;;;;;;1885051;75;21159;-82
2021/12/05 11:41:56;;;;;;;1.27;0.65;;;9.10;99.90;;;;;;1885210;75;21170;-82
2021/12/05 11:44:22;;;;;;;4.75;1.22;;;8.60;99.90;;;;;;1892038;75;21089;-82
2021/12/05 11:46:48;;;;;;;12.78;0.90;;;8.40;99.90;;;;;;1890223;75;21058;-83
2021/12/05 11:49:16;;;;;;;2.33;0.93;;;8.20;99.90;;;;;;1885769;75;21493;-82
2021/12/05 11:51:44;;;;;;;2.30;0.95;;;8.00;99.90;;;;;;1879908;75;21093;-82
2021/12/05 11:54:10;;;;;;;1.00;0.55;;;8.00;99.90;;;;;;1883478;75;21175;-83
2021/12/05 11:56:36;;;;;;;0.95;0.70;;;8.10;99.90;;;;;;1885581;75;21168;-83
2021/12/05 11:59:02;;;;;;;2.15;0.70;;;8.30;99.90;;;;;;1888904;75;21077;-83
2021/12/05 12:01:28;;;;;;;2.15;0.72;;;8.30;99.90;;;;;;1889448;75;21113;-83
2021/12/05 12:03:54;;;;;;;2.08;0.90;;;8.10;99.90;;;;;;1893676;75;21077;-82
2021/12/05 12:06:20;;;;;;;3.92;1.00;;;8.10;99.90;;;;;;1890278;75;21167;-81
2021/12/05 12:08:47;;;;;;;2.72;1.27;;;8.00;99.90;;;;;;1878133;75;21857;-81
2021/12/05 12:11:13;;;;;;;3.98;1.80;;;7.80;99.90;;;;;;1875858;75;21101;-82
2021/12/05 12:13:41;;;;;;;1.85;1.37;;;7.50;99.90;;;;;;1880100;75;21081;-82
2021/12/05 12:16:10;;;;;;;1.17;0.90;;;7.60;99.90;;;;;;1883545;75;21151;-81
2021/12/05 12:18:35;;;;;;;4.25;1.32;;;7.50;99.90;;;;;;1883559;75;21497;-83
2021/12/05 12:21:02;;;;;;;2.50;1.12;;;7.30;99.90;;;;;;1852528;75;21479;-82
2021/12/05 12:23:28;;;;;;;2.80;1.30;;;7.30;99.90;;;;;;1880306;75;21094;-82
2021/12/05 12:25:54;;;;;;;1.90;1.02;;;7.30;99.90;;;;;;1888818;75;21054;-81
2021/12/05 12:28:20;;;;;;;2.08;0.68;;;7.40;99.90;;;;;;1882424;75;21544;-82
2021/12/05 12:30:46;;;;;;;2.60;0.60;;;7.20;99.90;;;;;;1883661;75;21486;-82
2021/12/05 12:33:13;;;;;;;1.27;0.60;;;7.20;99.90;;;;;;1858304;76;21070;-81
2021/12/05 12:35:40;;;;;;;1.70;0.82;;;7.30;99.90;;;;;;1885035;75;21158;-83
2021/12/05 12:38:08;;;;;;;1.35;0.68;;;7.30;99.90;;;;;;1887335;75;21089;-81
2021/12/05 12:40:34;;;;;;;1.82;0.72;;;7.30;99.90;;;;;;1883940;75;21089;-82
2021/12/05 12:43:00;;;;;;;1.22;0.60;;;7.30;99.90;;;;;;1886545;75;21168;-83
2021/12/05 12:45:27;;;;;;;3.20;0.93;;;7.30;99.90;;;;;;1881832;75;21155;-83
2021/12/05 12:47:54;;;;;;;1.00;0.80;;;7.30;99.90;;;;;;1891524;75;21508;-82
2021/12/05 12:50:21;;;;;;;1.15;0.60;;;7.30;99.90;;;;;;1881696;75;21267;-81
2021/12/05 12:52:47;;;;;;;6.08;0.80;;;7.30;99.90;;;;;;1890084;75;21086;-80
2021/12/05 12:55:13;;;;;;;5.97;1.02;;;7.30;99.90;;;;;;1892267;75;21166;-80
2021/12/05 12:57:39;;;;;;;2.62;0.53;;;7.20;99.90;;;;;;1874293;75;21090;-80
2021/12/05 13:00:05;;;;;;;0.98;0.60;;;7.20;99.90;;;;;;1885281;75;21143;-79
2021/12/05 13:02:59;;;;;;;0.68;0.50;;;7.10;99.90;;;;;;1889469;75;21138;-81
2021/12/05 13:05:17;;;;;;;3.47;0.88;;;7.00;99.90;;;;;;1884908;75;21151;-81
2021/12/05 13:10:16;;;;;;;0.85;0.65;;;7.30;99.90;;;;;;1879016;75;21530;-78
2021/12/05 13:12:44;;;;;;;1.72;1.20;;;7.60;99.90;;;;;;1880333;75;21089;-78
2021/12/05 13:15:10;;;;;;;4.17;1.10;;;7.80;99.90;;;;;;1881952;75;21089;-79
2021/12/05 13:17:36;;;;;;;2.75;1.10;;;7.80;99.90;;;;;;1886232;75;21082;-77
2021/12/05 13:20:03;;;;;;;4.20;0.82;;;8.20;99.90;;;;;;1885162;75;21094;-76
2021/12/05 13:22:29;;;;;;;2.45;1.52;;;8.70;99.90;;;;;;1891850;75;21094;-77
2021/12/05 13:24:55;;;;;;;1.47;0.75;;;10.00;99.90;;;;;;1880429;75;21159;-81
2021/12/05 13:27:21;;;;;;;0.75;0.60;;;10.70;99.90;;;;;;1890740;75;21077;-76
2021/12/05 13:29:48;;;;;;;0.80;0.80;;;10.80;99.90;;;;;;1890714;75;21209;-80
2021/12/05 13:32:14;;;;;;;1.00;0.50;;;10.40;99.90;;;;;;1887667;75;21086;-80
2021/12/05 13:34:40;;;;;;;1.07;0.70;;;9.20;99.90;;;;;;1880219;75;21576;-79
2021/12/05 13:37:06;;;;;;;1.05;0.90;;;9.00;99.90;;;;;;1888841;75;21466;-77
2021/12/05 13:39:32;;;;;;;0.70;0.70;;;8.60;99.90;;;;;;1879775;75;21489;-77
2021/12/05 13:41:58;;;;;;;1.27;0.55;;;7.90;99.90;;;;;;1877721;75;21137;-78
2021/12/05 13:44:25;;;;;;;0.65;0.50;;;8.00;99.90;;;;;;1884505;75;21155;-78
2021/12/05 13:46:53;;;;;;;0.80;0.42;;;8.00;99.90;;;;;;1890479;75;21174;-77
2021/12/05 13:49:20;;;;;;;1.62;0.70;;;7.90;99.90;;;;;;1882484;75;21304;-76
2021/12/05 13:51:46;;;;;;;0.40;0.40;;;7.80;99.90;;;;;;1884212;75;21094;-76
2021/12/05 13:54:12;;;;;;;0.30;0.30;;;7.70;99.90;;;;;;1893179;75;21548;-75
2021/12/05 13:56:38;;;;;;;0.60;0.60;;;7.70;99.90;;;;;;1876338;75;21494;-76
2021/12/05 13:59:04;;;;;;;1.85;0.60;;;7.70;99.90;;;;;;1887138;75;21086;-76
2021/12/05 14:01:30;;;;;;;1.37;0.65;;;7.60;99.90;;;;;;1878843;75;21081;-75
2021/12/05 14:03:57;;;;;;;1.42;0.55;;;7.50;99.90;;;;;;1886361;75;21086;-75
2021/12/05 14:06:23;;;;;;;0.68;0.60;;;7.60;99.90;;;;;;1890764;75;21081;-75
2021/12/05 14:08:49;;;;;;;0.72;0.40;;;7.50;99.90;;;;;;1882141;75;21118;-75
2021/12/05 14:11:15;;;;;;;0.98;0.68;;;7.40;99.90;;;;;;1891999;75;21172;-77
2021/12/05 14:13:41;;;;;;;1.57;0.70;;;7.20;99.90;;;;;;1864289;76;21069;-75
2021/12/05 14:16:07;;;;;;;0.47;0.47;;;7.20;99.90;;;;;;1880410;75;21170;-75
2021/12/05 14:18:33;;;;;;;0.80;0.50;;;7.40;99.90;;;;;;1885454;75;21159;-76
2021/12/05 14:20:59;;;;;;;1.80;0.57;;;7.40;99.90;;;;;;1889139;75;21559;-76
2021/12/05 14:23:25;;;;;;;1.25;0.60;;;7.30;99.90;;;;;;1886033;75;21573;-74
2021/12/05 14:25:52;;;;;;;2.10;1.30;;;7.20;99.90;;;;;;1882571;75;21691;-75
2021/12/05 14:28:18;;;;;;;2.67;0.98;;;7.30;99.90;;;;;;1885498;75;21276;-76
2021/12/05 14:30:45;;;;;;;2.05;0.90;;;7.40;99.90;;;;;;1874290;75;21076;-74
2021/12/05 14:33:11;;;;;;;2.35;1.37;;;7.20;99.90;;;;;;1887068;75;21170;-74
2021/12/05 14:35:37;;;;;;;4.35;1.37;;;7.00;99.90;;;;;;1879126;75;21190;-73
2021/12/05 14:38:03;;;;;;;2.17;1.20;;;6.90;99.90;;;;;;1888342;75;21490;-73
2021/12/05 14:40:33;;;;;;;2.75;1.10;;;6.70;99.90;;;;;;1879932;75;21430;-73
2021/12/05 14:43:00;;;;;;;2.87;1.60;;;6.80;99.90;;;;;;1887876;75;21579;-74
2021/12/05 14:45:27;;;;;;;2.55;1.70;;;6.70;99.90;;;;;;1889858;75;21163;-75
2021/12/05 14:47:53;;;;;;;3.80;1.10;;;6.60;99.90;;;;;;1884142;75;21058;-75
2021/12/05 14:50:19;;;;;;;2.35;0.70;;;6.60;99.90;;;;;;1887962;75;21084;-78
2021/12/05 14:52:45;;;;;;;0.75;0.60;;;6.70;99.90;;;;;;1886187;75;21144;-74
2021/12/05 14:55:11;;;;;;;2.10;1.00;;;6.60;99.90;;;;;;1889666;75;21167;-77
2021/12/05 14:57:37;;;;;;;3.10;0.90;;;6.60;99.90;;;;;;1881509;75;21498;-74
2021/12/05 15:00:03;;;;;;;1.22;0.70;;;6.60;99.90;;;;;;1887725;75;21482;-75
2021/12/05 15:02:30;;;;;;;2.75;0.70;;;6.60;99.90;;;;;;1877609;75;21559;-70
2021/12/05 15:04:56;;;;;;;4.30;1.15;;;6.50;99.90;;;;;;1885749;75;21151;-72
2021/12/05 15:07:22;;;;;;;6.33;0.95;;;6.50;99.90;;;;;;1880302;75;21163;-74
2021/12/05 15:09:49;;;;;;;1.50;0.85;;;6.40;99.90;;;;;;1891551;75;21190;-73
2021/12/05 15:12:16;;;;;;;2.08;0.80;;;6.50;99.90;;;;;;1890734;75;21162;-73
2021/12/05 15:14:43;;;;;;;1.40;0.80;;;6.50;99.90;;;;;;1885282;75;21533;-74
2021/12/05 15:17:09;;;;;;;4.47;1.62;;;6.40;99.90;;;;;;1881863;75;21129;-73
2021/12/05 15:19:35;;;;;;;3.60;1.80;;;6.40;99.90;;;;;;1883255;75;21077;-72
2021/12/05 15:22:01;;;;;;;4.05;1.67;;;6.40;99.90;;;;;;1884559;75;21059;-72
2021/12/05 15:24:27;;;;;;;2.72;1.42;;;6.40;99.90;;;;;;1887110;75;21078;-72
2021/12/05 15:26:54;;;;;;;2.42;1.20;;;6.40;99.90;;;;;;1888819;75;21085;-72
2021/12/05 15:29:20;;;;;;;1.85;0.95;;;6.30;99.90;;;;;;1888113;75;21089;-73
2021/12/05 15:31:48;;;;;;;2.02;1.00;;;6.20;99.90;;;;;;1890908;75;21093;-74
2021/12/05 15:34:14;;;;;;;1.27;0.80;;;6.10;99.90;;;;;;1878180;75;21485;-74
2021/12/05 15:36:40;;;;;;;2.15;0.98;;;6.10;99.90;;;;;;1878570;75;21576;-74
2021/12/05 15:39:06;;;;;;;2.58;1.00;;;6.10;99.90;;;;;;1887470;75;21443;-74
2021/12/05 15:41:32;;;;;;;2.37;1.22;;;6.10;99.90;;;;;;1889572;75;21493;-73
2021/12/05 15:43:58;;;;;;;2.87;1.12;;;6.20;99.90;;;;;;1889143;75;21257;-74
2021/12/05 15:46:24;;;;;;;2.60;1.10;;;6.30;99.90;;;;;;1878828;75;21155;-74
2021/12/05 15:48:52;;;;;;;1.45;0.80;;;6.30;99.90;;;;;;1878686;75;21275;-73
2021/12/05 15:51:18;;;;;;;1.15;0.90;;;6.20;99.90;;;;;;1892479;75;21505;-79
2021/12/05 15:53:44;;;;;;;3.30;1.42;;;5.90;99.90;;;;;;1891247;75;21167;-77
2021/12/05 15:56:10;;;;;;;1.37;1.05;;;5.70;99.90;;;;;;1882669;75;21149;-76
2021/12/05 15:58:37;;;;;;;3.20;1.98;;;5.60;99.90;;;;;;1881555;75;21089;-76
2021/12/05 16:01:03;;;;;;;3.75;1.70;;;5.60;99.90;;;;;;1887060;75;21158;-76
2021/12/05 16:03:29;;;;;;;1.27;1.10;;;5.50;99.90;;;;;;1884006;75;21085;-76
2021/12/05 16:05:55;;;;;;;2.58;1.15;;;5.60;99.90;;;;;;1881934;75;21159;-76
2021/12/05 16:08:21;;;;;;;0.80;0.80;;;5.60;99.90;;;;;;1889888;75;21093;-76
2021/12/05 16:10:47;;;;;;;2.17;1.00;;;5.60;99.90;;;;;;1886297;75;21051;-76
2021/12/05 16:13:13;;;;;;;1.67;0.90;;;5.50;99.90;;;;;;1886069;75;21085;-86
2021/12/05 16:15:39;;;;;;;1.52;0.85;;;5.50;99.90;;;;;;1880886;75;21206;-78
2021/12/05 16:18:06;;;;;;;2.75;1.20;;;5.40;99.90;;;;;;1882349;75;21477;-77
2021/12/05 16:20:32;;;;;;;2.72;1.20;;;5.30;99.90;;;;;;1881199;75;21591;-77
2021/12/05 16:22:58;;;;;;;4.97;1.75;;;5.30;99.90;;;;;;1892183;74;21478;-76
2021/12/05 16:25:24;;;;;;;2.55;1.70;;;5.20;99.90;;;;;;1888135;75;21062;-76
2021/12/05 16:30:35;;;;;;;1.75;1.30;;;5.20;99.90;;;;;;1898601;74;21102;-76
2021/12/05 16:33:02;;;;;;;3.87;1.70;;;5.10;99.90;;;;;;1910307;74;21212;-79
2021/12/05 16:35:28;;;;;;;2.65;2.17;;;5.10;99.90;;;;;;1908827;74;21934;-79
2021/12/05 16:37:54;;;;;;;6.92;2.90;;;5.00;99.90;;;;;;1890162;74;21264;-78
2021/12/05 16:40:20;;;;;;;6.22;2.87;;;5.10;99.90;;;;;;1903910;74;21149;-78
2021/12/05 16:42:46;;;;;;;3.30;2.52;;;5.00;99.90;;;;;;1904683;74;21084;-78
2021/12/05 16:45:12;;;;;;;3.90;2.50;;;4.90;99.90;;;;;;1904213;74;21053;-78
2021/12/05 16:47:39;;;;;;;3.27;2.65;;;4.90;99.90;;;;;;1908712;74;21079;-79
2021/12/05 16:50:05;;;;;;;3.25;2.95;;;4.90;99.90;;;;;;1906239;74;21503;-77
2021/12/05 16:52:33;;;;;;;4.55;2.60;;;4.90;99.90;;;;;;1906272;74;21149;-79
2021/12/05 16:55:02;;;;;;;8.53;2.45;;;5.10;99.90;;;;;;1893967;74;21087;-78
2021/12/05 16:57:32;;;;;;;3.02;2.20;;;5.20;99.90;;;;;;1895163;74;21224;-78
2021/12/05 16:59:57;;;;;;;;;;;5.20;99.90;;;;;;1904226;73;21075;-81
2021/12/05 17:02:24;;;;;;;5.00;2.02;;;5.10;99.90;;;;;;1903057;74;20341;-80
2021/12/05 17:04:58;;;;;;;4.95;2.27;;;5.00;99.90;;;;;;1904487;74;21169;-79
2021/12/05 17:07:18;;;;;;;2.00;1.87;;;4.90;99.90;;;;;;1906472;74;21087;-78
2021/12/05 17:09:45;;;;;;;6.75;2.47;;;4.90;99.90;;;;;;1894899;74;21208;-78
2021/12/05 17:12:11;;;;;;;5.10;2.65;;;5.00;99.90;;;;;;1902080;74;21088;-78
2021/12/05 17:14:37;;;;;;;4.25;3.17;;;5.00;99.90;;;;;;1904241;74;21151;-79
2021/12/05 17:17:04;;;;;;;5.87;3.37;;;5.00;99.90;;;;;;1891904;74;21084;-79
2021/12/05 17:19:30;;;;;;;6.60;3.70;;;4.90;99.90;;;;;;1892323;74;21096;-78
2021/12/05 17:24:41;;;;;;;7.20;3.65;;;4.90;99.90;;;;;;1910820;74;21191;-78
2021/12/05 17:27:07;;;;;;;7.70;3.90;;;4.90;99.90;;;;;;1901461;74;21100;-79
2021/12/05 17:29:34;;;;;;;7.90;3.30;;;5.00;99.90;;;;;;1903365;74;21130;-76
2021/12/05 17:32:00;;;;;;;8.13;3.95;;;5.00;99.90;;;;;;1903081;74;21089;-77
2021/12/05 17:34:26;;;;;;;6.20;3.67;;;4.90;99.90;;;;;;1901314;74;21156;-76
2021/12/05 17:36:52;;;;;;;4.78;3.80;;;4.80;99.90;;;;;;1900786;74;21425;-80
2021/12/05 17:39:20;;;;;;;8.15;4.65;;;4.80;99.90;;;;;;1905739;74;21057;-80
2021/12/05 17:41:46;;;;;;;8.30;3.60;;;4.70;99.90;;;;;;1902759;74;21075;-80
2021/12/05 17:44:12;;;;;;;6.55;3.67;;;4.70;99.90;;;;;;1899259;74;21153;-77
2021/12/05 17:46:39;;;;;;;6.10;3.20;;;4.60;99.90;;;;;;1909359;74;21165;-78
2021/12/05 17:49:06;;;;;;;4.62;3.62;;;4.50;99.90;;;;;;1906555;74;21083;-80
2021/12/05 17:51:36;;;;;;;8.25;3.87;;;4.50;99.90;;;;;;1910309;74;21115;-76
2021/12/05 17:54:00;;;;;;;9.50;5.47;;;4.40;99.90;;;;;;1901504;74;21181;-77
2021/12/05 17:56:38;;;;;;;9.03;4.60;;;4.40;99.90;;;;;;1893141;74;21166;-76
2021/12/05 17:59:05;;;;;;;6.50;4.10;;;4.40;99.90;;;;;;1900174;74;21080;-81
2021/12/05 18:04:06;;;;;;;14.65;4.75;;;4.30;99.90;;;;;;1906750;74;21072;-79
2021/12/05 18:06:32;;;;;;;7.22;4.30;;;4.40;99.90;;;;;;1905671;74;21088;-77
2021/12/05 18:08:58;;;;;;;12.10;4.45;;;4.40;99.90;;;;;;1887679;74;21095;-77
2021/12/05 18:11:25;;;;;;;13.25;4.45;;;4.40;99.90;;;;;;1897735;74;21049;-79
2021/12/05 18:13:53;;;;;;;5.30;4.00;;;4.40;99.90;;;;;;1907828;74;21052;-78
2021/12/05 18:16:23;;;;;;;6.83;4.37;;;4.30;99.90;;;;;;1900903;74;21574;-79
2021/12/05 18:18:47;;;;;;;10.60;5.75;;;4.30;99.90;;;;;;1912891;74;21083;-79
2021/12/05 18:21:13;;;;;;;12.53;7.50;;;4.30;99.90;;;;;;1913255;74;21475;-79
2021/12/05 18:23:39;;;;;;;14.20;8.20;;;4.30;99.90;;;;;;1897419;74;21083;-81
2021/12/05 18:26:05;;;;;;;19.50;7.47;;;4.20;99.90;;;;;;1905129;74;21084;-79
2021/12/05 18:28:32;;;;;;;12.53;8.10;;;4.20;99.90;;;;;;1894434;74;21079;-78
2021/12/05 18:30:58;;;;;;;10.78;6.97;;;4.20;99.90;;;;;;1904113;74;21088;-80
2021/12/05 18:33:26;;;;;;;10.30;6.35;;;4.10;99.90;;;;;;1903966;74;21160;-77
2021/12/05 18:38:38;;;;;;;13.95;7.33;;;4.10;99.90;;;;;;2000589;71;21041;-78
2021/12/05 18:41:09;;;;;;;12.13;6.70;;;4.00;99.90;;;;;;1992914;71;21037;-80
2021/12/05 18:43:32;;;;;;;7.85;5.78;;;4.10;99.90;;;;;;1993007;71;21094;-80
2021/12/05 18:45:59;;;;;;;13.20;7.40;;;4.10;99.90;;;;;;1994230;71;21053;-79
2021/12/05 18:48:25;;;;;;;14.65;7.90;;;4.10;99.90;;;;;;1993438;71;21502;-81
2021/12/05 18:50:51;;;;;;;10.60;7.30;;;4.00;99.90;;;;;;1994009;71;21433;-86
2021/12/05 18:53:17;;;;;;;16.45;7.55;;;4.00;99.90;;;;;;1993931;71;21362;-88
2021/12/05 18:55:45;;;;;;;14.33;7.62;;;4.10;99.90;;;;;;2003212;71;21081;-81